sensor_id;sensor_type;location;lat;lon;timestamp;temperature;humidity
11961;DHT22;6040;49.358;11.140;2023-03-23T00:01:56;7.90;99.90
11961;DHT22;6040;49.358;11.140;2023-03-23T00:04:23;7.90;99.90
11961;DHT22;6040;49.358;11.140;2023-03-23T00:06:52;7.90;99.90
11961;DHT22;6040;49.358;11.140;2023-03-23T00:09:20;7.90;99.90
11961;DHT22;6040;49.358;11.140;2023-03-23T00:11:49;7.90;99.90
11961;DHT22;6040;49.358;11.140;2023-03-23T00:14:17;7.90;99.90
11961;DHT22;6040;49.358;11.140;2023-03-23T00:16:48;7.90;99.90
11961;DHT22;6040;49.358;11.140;2023-03-23T00:19:16;8.80;99.90
11961;DHT22;6040;49.358;11.140;2023-03-23T00:21:44;7.90;99.90
11961;DHT22;6040;49.358;11.140;2023-03-23T00:24:13;7.80;99.90
11961;DHT22;6040;49.358;11.140;2023-03-23T00:26:44;7.80;99.90
11961;DHT22;6040;49.358;11.140;2023-03-23T00:29:14;7.80;99.90
11961;DHT22;6040;49.358;11.140;2023-03-23T00:31:41;8.80;99.90
11961;DHT22;6040;49.358;11.140;2023-03-23T00:34:13;10.10;99.90
11961;DHT22;6040;49.358;11.140;2023-03-23T00:36:45;8.20;99.90
11961;DHT22;6040;49.358;11.140;2023-03-23T00:39:12;7.70;99.90
11961;DHT22;6040;49.358;11.140;2023-03-23T00:41:43;7.70;99.90
11961;DHT22;6040;49.358;11.140;2023-03-23T00:44:10;7.70;99.90
11961;DHT22;6040;49.358;11.140;2023-03-23T00:46:42;7.70;99.90
11961;DHT22;6040;49.358;11.140;2023-03-23T00:49:11;7.70;99.90
11961;DHT22;6040;49.358;11.140;2023-03-23T00:51:39;7.60;99.90
11961;DHT22;6040;49.358;11.140;2023-03-23T00:54:06;8.60;99.90
11961;DHT22;6040;49.358;11.140;2023-03-23T00:56:33;8.30;99.90
11961;DHT22;6040;49.358;11.140;2023-03-23T00:59:01;7.70;99.90
11961;DHT22;6040;49.358;11.140;2023-03-23T01:01:29;7.70;99.90
11961;DHT22;6040;49.358;11.140;2023-03-23T01:03:57;7.70;99.90
11961;DHT22;6040;49.358;11.140;2023-03-23T01:06:26;7.80;99.90
11961;DHT22;6040;49.358;11.140;2023-03-23T01:08:53;9.00;99.90
11961;DHT22;6040;49.358;11.140;2023-03-23T01:11:22;7.80;99.90
11961;DHT22;6040;49.358;11.140;2023-03-23T01:13:49;7.80;99.90
11961;DHT22;6040;49.358;11.140;2023-03-23T01:16:17;7.80;99.90
11961;DHT22;6040;49.358;11.140;2023-03-23T01:18:44;7.80;99.90
11961;DHT22;6040;49.358;11.140;2023-03-23T01:21:13;7.90;99.90
11961;DHT22;6040;49.358;11.140;2023-03-23T01:23:41;8.00;99.90
11961;DHT22;6040;49.358;11.140;2023-03-23T01:26:10;8.00;99.90
11961;DHT22;6040;49.358;11.140;2023-03-23T01:28:37;8.00;99.90
11961;DHT22;6040;49.358;11.140;2023-03-23T01:31:06;8.00;99.90
11961;DHT22;6040;49.358;11.140;2023-03-23T01:33:35;8.10;99.90
11961;DHT22;6040;49.358;11.140;2023-03-23T01:36:03;8.10;99.90
11961;DHT22;6040;49.358;11.140;2023-03-23T01:38:31;8.20;99.90
11961;DHT22;6040;49.358;11.140;2023-03-23T01:40:57;8.20;99.90
11961;DHT22;6040;49.358;11.140;2023-03-23T01:43:25;8.20;99.90
11961;DHT22;6040;49.358;11.140;2023-03-23T01:45:52;8.30;99.90
11961;DHT22;6040;49.358;11.140;2023-03-23T01:48:23;8.20;99.90
11961;DHT22;6040;49.358;11.140;2023-03-23T01:50:56;9.40;99.90
11961;DHT22;6040;49.358;11.140;2023-03-23T01:53:28;8.30;99.90
11961;DHT22;6040;49.358;11.140;2023-03-23T01:55:57;8.90;99.90
11961;DHT22;6040;49.358;11.140;2023-03-23T01:58:27;8.40;99.90
11961;DHT22;6040;49.358;11.140;2023-03-23T02:00:55;9.70;99.90
11961;DHT22;6040;49.358;11.140;2023-03-23T02:03:25;8.50;99.90
11961;DHT22;6040;49.358;11.140;2023-03-23T02:05:53;8.50;99.90
11961;DHT22;6040;49.358;11.140;2023-03-23T02:08:24;8.50;99.90
11961;DHT22;6040;49.358;11.140;2023-03-23T02:10:53;9.40;99.90
11961;DHT22;6040;49.358;11.140;2023-03-23T02:13:20;8.50;99.90
11961;DHT22;6040;49.358;11.140;2023-03-23T02:15:54;8.60;99.90
11961;DHT22;6040;49.358;11.140;2023-03-23T02:18:35;8.60;99.90
11961;DHT22;6040;49.358;11.140;2023-03-23T02:21:37;8.60;99.90
11961;DHT22;6040;49.358;11.140;2023-03-23T02:24:29;8.70;99.90
11961;DHT22;6040;49.358;11.140;2023-03-23T02:27:01;8.70;99.90
11961;DHT22;6040;49.358;11.140;2023-03-23T02:30:00;9.40;99.90
11961;DHT22;6040;49.358;11.140;2023-03-23T02:32:44;8.70;99.90
11961;DHT22;6040;49.358;11.140;2023-03-23T02:35:18;8.70;99.90
11961;DHT22;6040;49.358;11.140;2023-03-23T02:37:49;8.70;99.90
11961;DHT22;6040;49.358;11.140;2023-03-23T02:40:19;8.70;99.90
11961;DHT22;6040;49.358;11.140;2023-03-23T02:42:50;8.70;99.90
11961;DHT22;6040;49.358;11.140;2023-03-23T02:45:20;8.80;99.90
11961;DHT22;6040;49.358;11.140;2023-03-23T02:47:51;8.80;99.90
11961;DHT22;6040;49.358;11.140;2023-03-23T02:50:22;8.80;99.90
11961;DHT22;6040;49.358;11.140;2023-03-23T02:52:50;9.40;99.90
11961;DHT22;6040;49.358;11.140;2023-03-23T02:55:19;10.60;99.90
11961;DHT22;6040;49.358;11.140;2023-03-23T02:57:50;9.40;99.90
11961;DHT22;6040;49.358;11.140;2023-03-23T03:00:18;9.00;99.90
11961;DHT22;6040;49.358;11.140;2023-03-23T03:02:47;9.10;99.90
11961;DHT22;6040;49.358;11.140;2023-03-23T03:05:26;9.10;99.90
11961;DHT22;6040;49.358;11.140;2023-03-23T03:08:01;9.10;99.90
11961;DHT22;6040;49.358;11.140;2023-03-23T03:10:36;10.70;99.90
11961;DHT22;6040;49.358;11.140;2023-03-23T03:13:11;9.20;99.90
11961;DHT22;6040;49.358;11.140;2023-03-23T03:15:44;9.30;99.90
11961;DHT22;6040;49.358;11.140;2023-03-23T03:18:16;9.40;99.90
11961;DHT22;6040;49.358;11.140;2023-03-23T03:20:49;9.40;99.90
11961;DHT22;6040;49.358;11.140;2023-03-23T03:23:20;9.50;99.90
11961;DHT22;6040;49.358;11.140;2023-03-23T03:25:49;9.50;99.90
11961;DHT22;6040;49.358;11.140;2023-03-23T03:28:18;9.60;99.90
11961;DHT22;6040;49.358;11.140;2023-03-23T03:30:48;9.50;99.90
11961;DHT22;6040;49.358;11.140;2023-03-23T03:33:17;9.50;99.90
11961;DHT22;6040;49.358;11.140;2023-03-23T03:35:47;9.50;99.90
11961;DHT22;6040;49.358;11.140;2023-03-23T03:38:15;9.50;99.90
11961;DHT22;6040;49.358;11.140;2023-03-23T03:40:42;9.50;99.90
11961;DHT22;6040;49.358;11.140;2023-03-23T03:43:09;9.60;99.90
11961;DHT22;6040;49.358;11.140;2023-03-23T03:45:35;9.60;99.90
11961;DHT22;6040;49.358;11.140;2023-03-23T03:48:02;8.60;99.90
11961;DHT22;6040;49.358;11.140;2023-03-23T03:50:29;10.10;99.90
11961;DHT22;6040;49.358;11.140;2023-03-23T03:52:58;10.20;99.90
11961;DHT22;6040;49.358;11.140;2023-03-23T03:55:24;11.60;99.90
11961;DHT22;6040;49.358;11.140;2023-03-23T03:57:53;10.30;99.90
11961;DHT22;6040;49.358;11.140;2023-03-23T04:00:20;11.20;99.90
11961;DHT22;6040;49.358;11.140;2023-03-23T04:02:49;10.40;99.90
11961;DHT22;6040;49.358;11.140;2023-03-23T04:05:20;10.40;99.90
11961;DHT22;6040;49.358;11.140;2023-03-23T04:07:48;10.40;99.90
11961;DHT22;6040;49.358;11.140;2023-03-23T04:10:19;10.40;99.90
11961;DHT22;6040;49.358;11.140;2023-03-23T04:12:47;10.50;99.90
11961;DHT22;6040;49.358;11.140;2023-03-23T04:15:14;10.50;99.90
11961;DHT22;6040;49.358;11.140;2023-03-23T04:17:41;10.50;99.90
11961;DHT22;6040;49.358;11.140;2023-03-23T04:20:08;11.40;99.90
11961;DHT22;6040;49.358;11.140;2023-03-23T04:22:41;10.60;99.90
11961;DHT22;6040;49.358;11.140;2023-03-23T04:25:10;10.70;99.90
11961;DHT22;6040;49.358;11.140;2023-03-23T04:27:39;10.60;99.90
11961;DHT22;6040;49.358;11.140;2023-03-23T04:30:09;10.50;99.90
11961;DHT22;6040;49.358;11.140;2023-03-23T04:32:37;10.50;99.90
11961;DHT22;6040;49.358;11.140;2023-03-23T04:35:08;10.40;99.90
11961;DHT22;6040;49.358;11.140;2023-03-23T04:37:37;10.50;99.90
11961;DHT22;6040;49.358;11.140;2023-03-23T04:40:05;10.50;99.90
11961;DHT22;6040;49.358;11.140;2023-03-23T04:42:38;10.50;99.90
11961;DHT22;6040;49.358;11.140;2023-03-23T04:45:07;10.50;99.90
11961;DHT22;6040;49.358;11.140;2023-03-23T04:47:36;10.50;99.90
11961;DHT22;6040;49.358;11.140;2023-03-23T04:50:07;10.50;99.90
11961;DHT22;6040;49.358;11.140;2023-03-23T04:52:35;10.50;99.90
11961;DHT22;6040;49.358;11.140;2023-03-23T04:55:04;10.40;99.90
11961;DHT22;6040;49.358;11.140;2023-03-23T04:57:31;10.50;99.90
11961;DHT22;6040;49.358;11.140;2023-03-23T05:00:00;10.40;99.90
11961;DHT22;6040;49.358;11.140;2023-03-23T05:02:31;10.40;99.90
11961;DHT22;6040;49.358;11.140;2023-03-23T05:04:59;10.50;99.90
11961;DHT22;6040;49.358;11.140;2023-03-23T05:07:26;10.60;99.90
11961;DHT22;6040;49.358;11.140;2023-03-23T05:09:53;10.60;99.90
11961;DHT22;6040;49.358;11.140;2023-03-23T05:12:19;10.70;99.90
11961;DHT22;6040;49.358;11.140;2023-03-23T05:14:46;10.80;99.90
11961;DHT22;6040;49.358;11.140;2023-03-23T05:17:15;10.80;99.90
11961;DHT22;6040;49.358;11.140;2023-03-23T05:19:44;10.80;99.90
11961;DHT22;6040;49.358;11.140;2023-03-23T05:22:13;11.00;99.90
11961;DHT22;6040;49.358;11.140;2023-03-23T05:24:40;10.90;99.90
11961;DHT22;6040;49.358;11.140;2023-03-23T05:27:08;10.90;99.90
11961;DHT22;6040;49.358;11.140;2023-03-23T05:29:35;11.50;99.90
11961;DHT22;6040;49.358;11.140;2023-03-23T05:32:02;10.90;99.90
11961;DHT22;6040;49.358;11.140;2023-03-23T05:34:32;10.90;99.90
11961;DHT22;6040;49.358;11.140;2023-03-23T05:36:59;10.90;99.90
11961;DHT22;6040;49.358;11.140;2023-03-23T05:39:26;10.90;99.90
11961;DHT22;6040;49.358;11.140;2023-03-23T05:41:53;11.40;99.90
11961;DHT22;6040;49.358;11.140;2023-03-23T05:44:20;10.90;99.90
11961;DHT22;6040;49.358;11.140;2023-03-23T05:46:47;11.00;99.90
11961;DHT22;6040;49.358;11.140;2023-03-23T05:49:15;11.00;99.90
11961;DHT22;6040;49.358;11.140;2023-03-23T05:51:44;12.40;99.90
11961;DHT22;6040;49.358;11.140;2023-03-23T05:54:12;11.10;99.90
11961;DHT22;6040;49.358;11.140;2023-03-23T05:56:40;11.20;99.90
11961;DHT22;6040;49.358;11.140;2023-03-23T05:59:07;11.20;99.90
11961;DHT22;6040;49.358;11.140;2023-03-23T06:01:35;11.30;99.90
11961;DHT22;6040;49.358;11.140;2023-03-23T06:04:02;11.40;99.90
11961;DHT22;6040;49.358;11.140;2023-03-23T06:06:30;11.40;99.90
11961;DHT22;6040;49.358;11.140;2023-03-23T06:08:59;11.50;99.90
11961;DHT22;6040;49.358;11.140;2023-03-23T06:11:26;11.70;99.90
11961;DHT22;6040;49.358;11.140;2023-03-23T06:13:53;11.60;99.90
11961;DHT22;6040;49.358;11.140;2023-03-23T06:16:19;11.70;99.90
11961;DHT22;6040;49.358;11.140;2023-03-23T06:18:46;11.80;99.90
11961;DHT22;6040;49.358;11.140;2023-03-23T06:21:14;11.70;99.90
11961;DHT22;6040;49.358;11.140;2023-03-23T06:23:40;11.80;99.90
11961;DHT22;6040;49.358;11.140;2023-03-23T06:26:10;11.80;99.90
11961;DHT22;6040;49.358;11.140;2023-03-23T06:28:40;11.80;99.90
11961;DHT22;6040;49.358;11.140;2023-03-23T06:31:07;12.00;99.90
11961;DHT22;6040;49.358;11.140;2023-03-23T06:33:34;12.00;99.90
11961;DHT22;6040;49.358;11.140;2023-03-23T06:36:01;12.10;99.90
11961;DHT22;6040;49.358;11.140;2023-03-23T06:38:28;12.20;99.90
11961;DHT22;6040;49.358;11.140;2023-03-23T06:40:55;12.20;99.90
11961;DHT22;6040;49.358;11.140;2023-03-23T06:43:24;12.20;99.90
11961;DHT22;6040;49.358;11.140;2023-03-23T06:45:51;12.20;99.90
11961;DHT22;6040;49.358;11.140;2023-03-23T06:48:18;12.20;99.90
11961;DHT22;6040;49.358;11.140;2023-03-23T06:50:46;12.40;99.90
11961;DHT22;6040;49.358;11.140;2023-03-23T06:53:13;12.20;99.90
11961;DHT22;6040;49.358;11.140;2023-03-23T06:55:42;12.30;99.90
11961;DHT22;6040;49.358;11.140;2023-03-23T06:58:10;12.30;99.90
11961;DHT22;6040;49.358;11.140;2023-03-23T07:00:38;12.80;99.90
11961;DHT22;6040;49.358;11.140;2023-03-23T07:03:06;12.40;99.90
11961;DHT22;6040;49.358;11.140;2023-03-23T07:05:33;12.40;99.90
11961;DHT22;6040;49.358;11.140;2023-03-23T07:08:01;12.40;99.90
11961;DHT22;6040;49.358;11.140;2023-03-23T07:10:28;12.40;99.90
11961;DHT22;6040;49.358;11.140;2023-03-23T07:12:55;12.50;99.90
11961;DHT22;6040;49.358;11.140;2023-03-23T07:15:22;12.50;99.90
11961;DHT22;6040;49.358;11.140;2023-03-23T07:17:50;12.60;99.90
11961;DHT22;6040;49.358;11.140;2023-03-23T07:20:18;12.80;99.90
11961;DHT22;6040;49.358;11.140;2023-03-23T07:22:45;12.80;99.90
11961;DHT22;6040;49.358;11.140;2023-03-23T07:25:12;12.90;99.90
11961;DHT22;6040;49.358;11.140;2023-03-23T07:27:39;13.00;99.90
11961;DHT22;6040;49.358;11.140;2023-03-23T07:30:07;13.80;99.90
11961;DHT22;6040;49.358;11.140;2023-03-23T07:32:33;13.30;99.90
11961;DHT22;6040;49.358;11.140;2023-03-23T07:35:02;13.40;99.90
11961;DHT22;6040;49.358;11.140;2023-03-23T07:37:29;13.50;99.90
11961;DHT22;6040;49.358;11.140;2023-03-23T07:39:57;13.60;99.90
11961;DHT22;6040;49.358;11.140;2023-03-23T07:42:24;13.60;99.90
11961;DHT22;6040;49.358;11.140;2023-03-23T07:44:51;13.70;99.90
11961;DHT22;6040;49.358;11.140;2023-03-23T07:47:18;13.70;99.90
11961;DHT22;6040;49.358;11.140;2023-03-23T07:49:45;13.80;99.90
11961;DHT22;6040;49.358;11.140;2023-03-23T07:52:13;13.80;99.90
11961;DHT22;6040;49.358;11.140;2023-03-23T07:54:40;15.40;99.90
11961;DHT22;6040;49.358;11.140;2023-03-23T07:57:07;13.80;99.90
11961;DHT22;6040;49.358;11.140;2023-03-23T07:59:34;13.90;99.90
11961;DHT22;6040;49.358;11.140;2023-03-23T08:02:01;13.90;99.90
11961;DHT22;6040;49.358;11.140;2023-03-23T08:04:28;14.00;99.90
11961;DHT22;6040;49.358;11.140;2023-03-23T08:06:55;14.10;99.90
11961;DHT22;6040;49.358;11.140;2023-03-23T08:09:24;14.10;99.90
11961;DHT22;6040;49.358;11.140;2023-03-23T08:11:51;14.20;99.90
11961;DHT22;6040;49.358;11.140;2023-03-23T08:14:18;14.30;99.90
11961;DHT22;6040;49.358;11.140;2023-03-23T08:16:45;14.30;99.90
11961;DHT22;6040;49.358;11.140;2023-03-23T08:19:12;14.30;99.90
11961;DHT22;6040;49.358;11.140;2023-03-23T08:21:39;14.20;99.90
11961;DHT22;6040;49.358;11.140;2023-03-23T08:24:06;14.20;99.90
11961;DHT22;6040;49.358;11.140;2023-03-23T08:26:34;14.10;99.90
11961;DHT22;6040;49.358;11.140;2023-03-23T08:29:01;14.10;99.90
11961;DHT22;6040;49.358;11.140;2023-03-23T08:31:28;15.20;99.90
11961;DHT22;6040;49.358;11.140;2023-03-23T08:33:55;14.10;99.90
11961;DHT22;6040;49.358;11.140;2023-03-23T08:36:23;14.10;99.90
11961;DHT22;6040;49.358;11.140;2023-03-23T08:38:49;14.00;99.90
11961;DHT22;6040;49.358;11.140;2023-03-23T08:41:18;14.00;99.90
11961;DHT22;6040;49.358;11.140;2023-03-23T08:43:46;13.80;99.90
11961;DHT22;6040;49.358;11.140;2023-03-23T08:46:13;13.80;99.90
11961;DHT22;6040;49.358;11.140;2023-03-23T08:48:40;13.70;99.90
11961;DHT22;6040;49.358;11.140;2023-03-23T08:51:08;13.70;99.90
11961;DHT22;6040;49.358;11.140;2023-03-23T08:53:36;13.60;99.90
11961;DHT22;6040;49.358;11.140;2023-03-23T08:56:04;13.60;99.90
11961;DHT22;6040;49.358;11.140;2023-03-23T08:58:31;13.50;99.90
11961;DHT22;6040;49.358;11.140;2023-03-23T09:00:59;13.50;99.90
11961;DHT22;6040;49.358;11.140;2023-03-23T09:03:26;13.60;99.90
11961;DHT22;6040;49.358;11.140;2023-03-23T09:05:57;13.60;99.90
11961;DHT22;6040;49.358;11.140;2023-03-23T09:08:25;13.60;99.90
11961;DHT22;6040;49.358;11.140;2023-03-23T09:10:51;13.70;99.90
11961;DHT22;6040;49.358;11.140;2023-03-23T09:13:18;13.70;99.90
11961;DHT22;6040;49.358;11.140;2023-03-23T09:15:45;13.70;99.90
11961;DHT22;6040;49.358;11.140;2023-03-23T09:18:14;13.70;99.90
11961;DHT22;6040;49.358;11.140;2023-03-23T09:20:41;13.80;99.90
11961;DHT22;6040;49.358;11.140;2023-03-23T09:23:09;13.80;99.90
11961;DHT22;6040;49.358;11.140;2023-03-23T09:25:36;13.90;99.90
11961;DHT22;6040;49.358;11.140;2023-03-23T09:28:06;14.40;99.90
11961;DHT22;6040;49.358;11.140;2023-03-23T09:30:36;13.90;99.90
11961;DHT22;6040;49.358;11.140;2023-03-23T09:33:05;14.00;99.90
11961;DHT22;6040;49.358;11.140;2023-03-23T09:35:33;14.00;99.90
11961;DHT22;6040;49.358;11.140;2023-03-23T09:38:01;14.00;99.90
11961;DHT22;6040;49.358;11.140;2023-03-23T09:40:32;14.10;99.90
11961;DHT22;6040;49.358;11.140;2023-03-23T09:43:24;14.20;99.90
11961;DHT22;6040;49.358;11.140;2023-03-23T09:46:00;14.20;99.90
11961;DHT22;6040;49.358;11.140;2023-03-23T09:48:41;14.20;99.90
11961;DHT22;6040;49.358;11.140;2023-03-23T09:51:21;14.20;99.90
11961;DHT22;6040;49.358;11.140;2023-03-23T09:53:52;14.30;99.90
11961;DHT22;6040;49.358;11.140;2023-03-23T09:56:21;14.40;99.90
11961;DHT22;6040;49.358;11.140;2023-03-23T09:58:53;14.50;99.90
11961;DHT22;6040;49.358;11.140;2023-03-23T10:01:25;14.60;99.90
11961;DHT22;6040;49.358;11.140;2023-03-23T10:04:03;14.80;99.90
11961;DHT22;6040;49.358;11.140;2023-03-23T10:06:33;14.90;99.90
11961;DHT22;6040;49.358;11.140;2023-03-23T10:09:03;14.90;99.90
11961;DHT22;6040;49.358;11.140;2023-03-23T10:11:41;15.00;99.90
11961;DHT22;6040;49.358;11.140;2023-03-23T10:14:22;15.10;99.90
11961;DHT22;6040;49.358;11.140;2023-03-23T10:17:00;15.10;99.90
11961;DHT22;6040;49.358;11.140;2023-03-23T10:19:34;15.10;99.90
11961;DHT22;6040;49.358;11.140;2023-03-23T10:22:10;15.10;99.90
11961;DHT22;6040;49.358;11.140;2023-03-23T10:24:43;15.10;99.90
11961;DHT22;6040;49.358;11.140;2023-03-23T10:27:19;15.10;99.90
11961;DHT22;6040;49.358;11.140;2023-03-23T10:29:50;15.10;99.90
11961;DHT22;6040;49.358;11.140;2023-03-23T10:32:23;15.20;99.90
11961;DHT22;6040;49.358;11.140;2023-03-23T10:34:53;15.20;99.90
11961;DHT22;6040;49.358;11.140;2023-03-23T10:37:24;15.30;99.90
11961;DHT22;6040;49.358;11.140;2023-03-23T10:39:54;15.00;99.90
11961;DHT22;6040;49.358;11.140;2023-03-23T10:42:26;15.00;99.90
11961;DHT22;6040;49.358;11.140;2023-03-23T10:44:55;14.90;99.90
11961;DHT22;6040;49.358;11.140;2023-03-23T10:47:23;14.90;99.90
11961;DHT22;6040;49.358;11.140;2023-03-23T10:49:53;16.10;99.90
11961;DHT22;6040;49.358;11.140;2023-03-23T10:52:29;14.80;99.90
11961;DHT22;6040;49.358;11.140;2023-03-23T10:55:01;14.80;99.90
11961;DHT22;6040;49.358;11.140;2023-03-23T10:57:31;14.80;99.90
11961;DHT22;6040;49.358;11.140;2023-03-23T11:00:01;14.70;99.90
11961;DHT22;6040;49.358;11.140;2023-03-23T11:02:37;14.70;99.90
11961;DHT22;6040;49.358;11.140;2023-03-23T11:05:12;14.70;99.90
11961;DHT22;6040;49.358;11.140;2023-03-23T11:07:41;14.60;99.90
11961;DHT22;6040;49.358;11.140;2023-03-23T11:10:18;14.60;99.90
11961;DHT22;6040;49.358;11.140;2023-03-23T11:12:46;14.60;99.90
11961;DHT22;6040;49.358;11.140;2023-03-23T11:15:31;14.70;99.90
11961;DHT22;6040;49.358;11.140;2023-03-23T11:18:02;14.70;99.90
11961;DHT22;6040;49.358;11.140;2023-03-23T11:20:35;14.70;99.90
11961;DHT22;6040;49.358;11.140;2023-03-23T11:23:10;14.70;99.90
11961;DHT22;6040;49.358;11.140;2023-03-23T11:25:52;14.70;99.90
11961;DHT22;6040;49.358;11.140;2023-03-23T11:28:20;14.80;99.90
11961;DHT22;6040;49.358;11.140;2023-03-23T11:30:47;14.80;99.90
11961;DHT22;6040;49.358;11.140;2023-03-23T11:33:14;14.90;99.90
11961;DHT22;6040;49.358;11.140;2023-03-23T11:35:44;14.90;99.90
11961;DHT22;6040;49.358;11.140;2023-03-23T11:38:17;15.00;99.90
11961;DHT22;6040;49.358;11.140;2023-03-23T11:40:48;15.00;99.90
11961;DHT22;6040;49.358;11.140;2023-03-23T11:43:19;14.90;99.90
11961;DHT22;6040;49.358;11.140;2023-03-23T11:45:50;15.00;99.90
11961;DHT22;6040;49.358;11.140;2023-03-23T11:48:23;15.00;99.90
11961;DHT22;6040;49.358;11.140;2023-03-23T11:50:55;15.00;99.90
11961;DHT22;6040;49.358;11.140;2023-03-23T11:53:33;15.10;99.90
11961;DHT22;6040;49.358;11.140;2023-03-23T11:56:13;15.10;99.90
11961;DHT22;6040;49.358;11.140;2023-03-23T11:58:42;15.10;99.90
11961;DHT22;6040;49.358;11.140;2023-03-23T12:01:16;15.20;99.90
11961;DHT22;6040;49.358;11.140;2023-03-23T12:04:00;15.30;99.90
11961;DHT22;6040;49.358;11.140;2023-03-23T12:06:36;15.30;99.90
11961;DHT22;6040;49.358;11.140;2023-03-23T12:09:17;15.20;99.90
11961;DHT22;6040;49.358;11.140;2023-03-23T12:12:02;15.20;99.90
11961;DHT22;6040;49.358;11.140;2023-03-23T12:14:36;15.20;99.90
11961;DHT22;6040;49.358;11.140;2023-03-23T12:17:17;15.20;99.90
11961;DHT22;6040;49.358;11.140;2023-03-23T12:19:56;15.10;99.90
11961;DHT22;6040;49.358;11.140;2023-03-23T12:22:35;15.00;99.90
11961;DHT22;6040;49.358;11.140;2023-03-23T12:25:18;15.00;99.90
11961;DHT22;6040;49.358;11.140;2023-03-23T12:27:52;15.00;99.90
11961;DHT22;6040;49.358;11.140;2023-03-23T12:30:30;15.10;99.90
11961;DHT22;6040;49.358;11.140;2023-03-23T12:33:13;15.20;99.90
11961;DHT22;6040;49.358;11.140;2023-03-23T12:36:00;15.40;99.90
11961;DHT22;6040;49.358;11.140;2023-03-23T12:38:48;15.50;99.90
11961;DHT22;6040;49.358;11.140;2023-03-23T12:41:22;15.70;99.90
11961;DHT22;6040;49.358;11.140;2023-03-23T12:44:01;16.00;99.90
11961;DHT22;6040;49.358;11.140;2023-03-23T12:46:51;16.10;99.90
11961;DHT22;6040;49.358;11.140;2023-03-23T12:49:25;16.20;99.90
11961;DHT22;6040;49.358;11.140;2023-03-23T12:51:57;16.30;99.90
11961;DHT22;6040;49.358;11.140;2023-03-23T12:54:29;16.10;99.90
11961;DHT22;6040;49.358;11.140;2023-03-23T12:57:04;16.00;99.90
11961;DHT22;6040;49.358;11.140;2023-03-23T12:59:40;16.20;99.90
11961;DHT22;6040;49.358;11.140;2023-03-23T13:02:17;16.00;99.90
11961;DHT22;6040;49.358;11.140;2023-03-23T13:04:49;15.90;99.90
11961;DHT22;6040;49.358;11.140;2023-03-23T13:07:20;15.90;99.90
11961;DHT22;6040;49.358;11.140;2023-03-23T13:09:53;15.80;99.90
11961;DHT22;6040;49.358;11.140;2023-03-23T13:12:22;15.80;99.90
11961;DHT22;6040;49.358;11.140;2023-03-23T13:15:00;15.90;99.90
11961;DHT22;6040;49.358;11.140;2023-03-23T13:17:37;15.90;99.90
11961;DHT22;6040;49.358;11.140;2023-03-23T13:23:09;16.00;99.90
11961;DHT22;6040;49.358;11.140;2023-03-23T13:25:51;16.00;99.90
11961;DHT22;6040;49.358;11.140;2023-03-23T13:28:21;16.00;99.90
11961;DHT22;6040;49.358;11.140;2023-03-23T13:30:56;15.90;99.90
11961;DHT22;6040;49.358;11.140;2023-03-23T13:33:24;16.60;99.90
11961;DHT22;6040;49.358;11.140;2023-03-23T13:35:51;15.80;99.90
11961;DHT22;6040;49.358;11.140;2023-03-23T13:38:23;15.90;99.90
11961;DHT22;6040;49.358;11.140;2023-03-23T13:40:51;15.90;99.90
11961;DHT22;6040;49.358;11.140;2023-03-23T13:43:28;15.90;99.90
11961;DHT22;6040;49.358;11.140;2023-03-23T13:46:07;16.00;99.90
11961;DHT22;6040;49.358;11.140;2023-03-23T13:48:41;16.10;99.90
11961;DHT22;6040;49.358;11.140;2023-03-23T13:51:25;16.50;99.90
11961;DHT22;6040;49.358;11.140;2023-03-23T13:54:06;16.30;99.90
11961;DHT22;6040;49.358;11.140;2023-03-23T13:56:39;16.20;99.90
11961;DHT22;6040;49.358;11.140;2023-03-23T13:59:13;16.20;99.90
11961;DHT22;6040;49.358;11.140;2023-03-23T14:01:41;16.20;99.90
11961;DHT22;6040;49.358;11.140;2023-03-23T14:04:13;16.30;99.90
11961;DHT22;6040;49.358;11.140;2023-03-23T14:06:41;16.40;99.90
11961;DHT22;6040;49.358;11.140;2023-03-23T14:09:13;16.50;99.90
11961;DHT22;6040;49.358;11.140;2023-03-23T14:11:48;16.50;99.90
11961;DHT22;6040;49.358;11.140;2023-03-23T14:14:23;16.40;99.90
11961;DHT22;6040;49.358;11.140;2023-03-23T14:16:51;16.40;99.90
11961;DHT22;6040;49.358;11.140;2023-03-23T14:19:22;16.50;99.90
11961;DHT22;6040;49.358;11.140;2023-03-23T14:21:52;16.40;99.90
11961;DHT22;6040;49.358;11.140;2023-03-23T14:24:21;16.40;99.90
11961;DHT22;6040;49.358;11.140;2023-03-23T14:26:50;16.40;99.90
11961;DHT22;6040;49.358;11.140;2023-03-23T14:29:20;16.40;99.90
11961;DHT22;6040;49.358;11.140;2023-03-23T14:31:53;17.10;99.90
11961;DHT22;6040;49.358;11.140;2023-03-23T14:34:22;16.40;99.90
11961;DHT22;6040;49.358;11.140;2023-03-23T14:36:52;16.40;99.90
11961;DHT22;6040;49.358;11.140;2023-03-23T14:39:22;16.30;99.90
11961;DHT22;6040;49.358;11.140;2023-03-23T14:41:51;16.40;99.90
11961;DHT22;6040;49.358;11.140;2023-03-23T14:44:23;16.40;99.90
11961;DHT22;6040;49.358;11.140;2023-03-23T14:46:51;16.50;99.90
11961;DHT22;6040;49.358;11.140;2023-03-23T14:49:24;16.40;99.90
11961;DHT22;6040;49.358;11.140;2023-03-23T14:51:54;16.40;99.90
11961;DHT22;6040;49.358;11.140;2023-03-23T14:54:22;16.30;99.90
11961;DHT22;6040;49.358;11.140;2023-03-23T14:56:50;16.30;99.90
11961;DHT22;6040;49.358;11.140;2023-03-23T14:59:17;16.30;99.90
11961;DHT22;6040;49.358;11.140;2023-03-23T15:01:46;16.20;99.90
11961;DHT22;6040;49.358;11.140;2023-03-23T15:04:16;16.20;99.90
11961;DHT22;6040;49.358;11.140;2023-03-23T15:06:48;16.20;99.90
11961;DHT22;6040;49.358;11.140;2023-03-23T15:09:17;16.20;99.90
11961;DHT22;6040;49.358;11.140;2023-03-23T15:11:52;16.20;99.90
11961;DHT22;6040;49.358;11.140;2023-03-23T15:14:22;16.20;99.90
11961;DHT22;6040;49.358;11.140;2023-03-23T15:16:53;16.20;99.90
11961;DHT22;6040;49.358;11.140;2023-03-23T15:19:22;16.10;99.90
11961;DHT22;6040;49.358;11.140;2023-03-23T15:21:53;16.10;99.90
11961;DHT22;6040;49.358;11.140;2023-03-23T15:24:26;16.00;99.90
11961;DHT22;6040;49.358;11.140;2023-03-23T15:26:53;15.90;99.90
11961;DHT22;6040;49.358;11.140;2023-03-23T15:29:21;15.90;99.90
11961;DHT22;6040;49.358;11.140;2023-03-23T15:31:52;15.90;99.90
11961;DHT22;6040;49.358;11.140;2023-03-23T15:34:25;15.80;99.90
11961;DHT22;6040;49.358;11.140;2023-03-23T15:36:56;15.70;99.90
11961;DHT22;6040;49.358;11.140;2023-03-23T15:39:23;15.70;99.90
11961;DHT22;6040;49.358;11.140;2023-03-23T15:41:52;15.70;99.90
11961;DHT22;6040;49.358;11.140;2023-03-23T15:44:25;15.70;99.90
11961;DHT22;6040;49.358;11.140;2023-03-23T15:47:02;15.50;99.90
11961;DHT22;6040;49.358;11.140;2023-03-23T15:49:30;15.70;99.90
11961;DHT22;6040;49.358;11.140;2023-03-23T15:51:57;16.40;99.90
11961;DHT22;6040;49.358;11.140;2023-03-23T15:54:23;15.60;99.90
11961;DHT22;6040;49.358;11.140;2023-03-23T15:56:55;15.50;99.90
11961;DHT22;6040;49.358;11.140;2023-03-23T15:59:22;15.60;99.90